createdAt,value
2022-08-31T00:00:38.845Z,101163.00
2022-08-31T00:03:26.107Z,101165.00
2022-08-31T00:05:58.862Z,101159.00
2022-08-31T00:08:29.221Z,101164.00
2022-08-31T00:10:57.479Z,101164.00
2022-08-31T00:13:26.698Z,101160.00
2022-08-31T00:15:55.903Z,101161.00
2022-08-31T00:18:24.473Z,101158.00
2022-08-31T00:20:52.620Z,101159.00
2022-08-31T00:23:21.940Z,101158.00
2022-08-31T00:25:50.438Z,101163.00
2022-08-31T00:28:19.209Z,101162.00
2022-08-31T00:30:49.212Z,101162.00
2022-08-31T00:33:17.539Z,101159.00
2022-08-31T00:35:47.789Z,101156.00
2022-08-31T00:38:16.017Z,101154.00
2022-08-31T00:40:46.828Z,101154.00
2022-08-31T00:43:51.079Z,101160.00
2022-08-31T00:46:22.396Z,101162.00
2022-08-31T00:49:02.256Z,101152.00
2022-08-31T00:51:31.913Z,101154.00
2022-08-31T00:54:00.941Z,101159.00
2022-08-31T00:56:31.704Z,101160.00
2022-08-31T00:59:00.707Z,101155.00
2022-08-31T01:01:29.569Z,101164.00
2022-08-31T01:03:59.217Z,101160.00
2022-08-31T01:06:27.909Z,101156.00
2022-08-31T01:08:57.601Z,101155.00
2022-08-31T01:11:26.605Z,101154.00
2022-08-31T01:13:55.196Z,101154.00
2022-08-31T01:16:32.035Z,101149.00
2022-08-31T01:19:02.123Z,101149.00
2022-08-31T01:21:55.664Z,101153.00
2022-08-31T01:24:25.946Z,101146.00
2022-08-31T01:26:56.097Z,101147.00
2022-08-31T01:29:24.344Z,101145.00
2022-08-31T01:31:53.513Z,101139.00
2022-08-31T01:34:21.593Z,101145.00
2022-08-31T01:36:51.924Z,101146.00
2022-08-31T01:39:21.201Z,101152.00
2022-08-31T01:41:49.176Z,101159.00
2022-08-31T01:44:20.402Z,101154.00
2022-08-31T01:46:48.795Z,101155.00
2022-08-31T01:49:18.520Z,101145.00
2022-08-31T01:51:47.749Z,101153.00
2022-08-31T01:54:17.120Z,101156.00
2022-08-31T01:56:47.753Z,101156.00
2022-08-31T01:59:22.737Z,101153.00
2022-08-31T02:02:00.816Z,101158.00
2022-08-31T02:04:30.042Z,101160.00
2022-08-31T02:06:59.668Z,101157.00
2022-08-31T02:09:29.587Z,101152.00
2022-08-31T02:11:57.605Z,101159.00
2022-08-31T02:14:25.711Z,101160.00
2022-08-31T02:16:56.223Z,101164.00
2022-08-31T02:19:24.322Z,101158.00
2022-08-31T02:21:52.516Z,101156.00
2022-08-31T02:24:20.477Z,101163.00
2022-08-31T02:26:53.069Z,101162.00
2022-08-31T02:29:22.321Z,101157.00
2022-08-31T02:31:51.444Z,101155.00
2022-08-31T02:34:19.432Z,101159.00
2022-08-31T02:36:47.694Z,101158.00
2022-08-31T02:39:16.020Z,101164.00
2022-08-31T02:41:45.330Z,101162.00
2022-08-31T02:44:13.728Z,101164.00
2022-08-31T02:46:41.812Z,101158.00
2022-08-31T02:49:38.356Z,101161.00
2022-08-31T02:52:06.341Z,101165.00
2022-08-31T02:54:34.239Z,101160.00
2022-08-31T02:57:03.037Z,101161.00
2022-08-31T02:59:30.929Z,101162.00
2022-08-31T03:01:59.382Z,101161.00
2022-08-31T03:04:27.896Z,101156.00
2022-08-31T03:06:55.828Z,101151.00
2022-08-31T03:09:25.052Z,101150.00
2022-08-31T03:11:53.136Z,101150.00
2022-08-31T03:14:21.473Z,101147.00
2022-08-31T03:16:51.776Z,101142.00
2022-08-31T03:19:21.430Z,101141.00
2022-08-31T03:21:55.948Z,101142.00
2022-08-31T03:24:27.314Z,101134.00
2022-08-31T03:26:56.687Z,101139.00
2022-08-31T03:29:24.868Z,101143.00
2022-08-31T03:31:55.699Z,101143.00
2022-08-31T03:34:25.311Z,101143.00
2022-08-31T03:36:53.282Z,101149.00
2022-08-31T03:39:21.250Z,101153.00
2022-08-31T03:41:49.601Z,101151.00
2022-08-31T03:44:21.937Z,101158.00
2022-08-31T03:46:55.156Z,101145.00
2022-08-31T03:49:27.944Z,101155.00
2022-08-31T03:52:15.057Z,101153.00
2022-08-31T03:54:50.315Z,101151.00
2022-08-31T03:57:18.591Z,101154.00
2022-08-31T03:59:46.631Z,101153.00
2022-08-31T04:02:21.538Z,101158.00
2022-08-31T04:05:08.605Z,101159.00
2022-08-31T04:07:55.562Z,101152.00
2022-08-31T04:10:49.428Z,101159.00
2022-08-31T04:13:37.115Z,101157.00
2022-08-31T04:16:29.432Z,101164.00
2022-08-31T04:19:11.688Z,101167.00
2022-08-31T04:21:50.355Z,101164.00
2022-08-31T04:24:18.378Z,101163.00
2022-08-31T04:26:52.587Z,101165.00
2022-08-31T04:29:21.155Z,101160.00
2022-08-31T04:31:49.371Z,101163.00
2022-08-31T04:34:19.138Z,101165.00
2022-08-31T04:36:48.000Z,101171.00
2022-08-31T04:39:18.550Z,101168.00
2022-08-31T04:41:47.435Z,101179.00
2022-08-31T04:44:19.674Z,101177.00
2022-08-31T04:46:50.454Z,101177.00
2022-08-31T04:49:19.196Z,101180.00
2022-08-31T04:51:50.003Z,101188.00
2022-08-31T04:54:18.943Z,101186.00
2022-08-31T04:56:47.154Z,101182.00
2022-08-31T04:59:27.593Z,101187.00
2022-08-31T05:02:15.870Z,101183.00
2022-08-31T05:05:06.692Z,101176.00
2022-08-31T05:07:34.525Z,101180.00
2022-08-31T05:10:03.018Z,101181.00
2022-08-31T05:12:32.348Z,101175.00
2022-08-31T05:15:00.651Z,101179.00
2022-08-31T05:17:29.794Z,101177.00
2022-08-31T05:19:58.566Z,101190.00
2022-08-31T05:22:26.674Z,101194.00
2022-08-31T05:25:00.173Z,101197.00
2022-08-31T05:27:31.195Z,101198.00
2022-08-31T05:29:59.210Z,101199.00
2022-08-31T05:32:41.623Z,101197.00
2022-08-31T05:35:12.498Z,101202.00
2022-08-31T05:37:42.663Z,101204.00
2022-08-31T05:40:12.027Z,101208.00
2022-08-31T05:42:40.968Z,101217.00
2022-08-31T05:45:10.334Z,101219.00
2022-08-31T05:47:41.232Z,101220.00
2022-08-31T05:50:09.497Z,101214.00
2022-08-31T05:52:41.331Z,101222.00
2022-08-31T05:55:10.046Z,101222.00
2022-08-31T05:57:40.523Z,101218.00
2022-08-31T06:00:10.867Z,101221.00
2022-08-31T06:02:45.041Z,101227.00
2022-08-31T06:05:15.635Z,101226.00
2022-08-31T06:07:47.495Z,101225.00
2022-08-31T06:10:18.181Z,101223.00
2022-08-31T06:12:47.565Z,101240.00
2022-08-31T06:15:17.891Z,101231.00
2022-08-31T06:17:45.845Z,101226.00
2022-08-31T06:20:18.173Z,101236.00
2022-08-31T06:22:48.610Z,101231.00
2022-08-31T06:25:34.141Z,101234.00
2022-08-31T06:28:02.537Z,101234.00
2022-08-31T06:30:30.780Z,101239.00
2022-08-31T06:33:02.471Z,101245.00
2022-08-31T06:35:49.239Z,101247.00
2022-08-31T06:38:46.725Z,101253.00
2022-08-31T06:41:39.851Z,101256.00
2022-08-31T06:44:34.520Z,101253.00
2022-08-31T06:47:14.481Z,101251.00
2022-08-31T06:49:43.512Z,101257.00
2022-08-31T06:52:11.559Z,101259.00
2022-08-31T06:54:42.492Z,101261.00
2022-08-31T06:57:28.973Z,101258.00
2022-08-31T07:00:17.895Z,101265.00
2022-08-31T07:03:20.759Z,101264.00
2022-08-31T07:05:49.422Z,101260.00
2022-08-31T07:08:17.960Z,101259.00
2022-08-31T07:10:46.362Z,101258.00
2022-08-31T07:13:14.602Z,101257.00
2022-08-31T07:15:44.357Z,101260.00
2022-08-31T07:18:12.697Z,101261.00
2022-08-31T07:20:41.511Z,101259.00
2022-08-31T07:23:12.640Z,101261.00
2022-08-31T07:25:47.755Z,101256.00
2022-08-31T07:28:16.428Z,101260.00
2022-08-31T07:30:46.234Z,101258.00
2022-08-31T07:33:18.470Z,101263.00
2022-08-31T07:35:56.777Z,101265.00
2022-08-31T07:39:06.544Z,101255.00
2022-08-31T07:41:59.208Z,101256.00
2022-08-31T07:44:32.410Z,101262.00
2022-08-31T07:47:01.447Z,101260.00
2022-08-31T07:49:31.066Z,101261.00
2022-08-31T07:52:22.040Z,101257.00
2022-08-31T07:55:08.315Z,101256.00
2022-08-31T07:57:56.040Z,101263.00
2022-08-31T08:00:28.613Z,101272.00
2022-08-31T08:03:07.740Z,101272.00
2022-08-31T08:05:56.311Z,101277.00
2022-08-31T08:08:44.616Z,101275.00
2022-08-31T08:11:25.888Z,101288.00
2022-08-31T08:14:14.735Z,101287.00
2022-08-31T08:17:07.911Z,101283.00
2022-08-31T08:19:43.008Z,101284.00
2022-08-31T08:22:11.014Z,101289.00
2022-08-31T08:25:01.856Z,101285.00
2022-08-31T08:27:45.321Z,101281.00
2022-08-31T08:30:37.236Z,101292.00
2022-08-31T08:33:08.944Z,101296.00
2022-08-31T08:35:41.374Z,101294.00
2022-08-31T08:38:10.625Z,101298.00
2022-08-31T08:40:43.139Z,101296.00
2022-08-31T08:43:16.861Z,101302.00
2022-08-31T08:45:54.407Z,101305.00
2022-08-31T08:48:31.212Z,101296.00
2022-08-31T08:51:02.344Z,101299.00
2022-08-31T08:53:43.081Z,101306.00
2022-08-31T08:56:43.529Z,101306.00
2022-08-31T08:59:18.529Z,101303.00
2022-08-31T09:01:50.279Z,101307.00
2022-08-31T09:04:46.524Z,101305.00
2022-08-31T09:07:58.996Z,101295.00
2022-08-31T09:10:30.861Z,101297.00
2022-08-31T09:13:27.233Z,101296.00
2022-08-31T09:16:12.482Z,101296.00
2022-08-31T09:19:02.366Z,101307.00
2022-08-31T09:21:34.971Z,101304.00
2022-08-31T09:24:13.573Z,101313.00
2022-08-31T09:27:19.376Z,101309.00
2022-08-31T09:29:59.317Z,101303.00
2022-08-31T09:32:33.144Z,101307.00
2022-08-31T09:35:02.362Z,101302.00
2022-08-31T09:37:43.928Z,101294.00
2022-08-31T09:40:23.373Z,101299.00
2022-08-31T09:43:17.819Z,101305.00
2022-08-31T09:45:56.212Z,101298.00
2022-08-31T09:48:56.692Z,101301.00
2022-08-31T09:51:33.038Z,101297.00
2022-08-31T09:54:46.008Z,101297.00
2022-08-31T09:57:15.279Z,101293.00
2022-08-31T09:59:52.243Z,101296.00
2022-08-31T10:02:23.266Z,101295.00
2022-08-31T10:04:52.741Z,101295.00
2022-08-31T10:07:50.803Z,101295.00
2022-08-31T10:10:30.426Z,101288.00
2022-08-31T10:13:10.492Z,101286.00
2022-08-31T10:15:44.422Z,101293.00
2022-08-31T10:18:17.856Z,101296.00
2022-08-31T10:20:52.000Z,101290.00
2022-08-31T10:23:54.567Z,101298.00
2022-08-31T10:26:39.297Z,101294.00
2022-08-31T10:29:30.457Z,101295.00
2022-08-31T10:32:00.726Z,101282.00
2022-08-31T10:34:50.937Z,101297.00
2022-08-31T10:37:28.519Z,101287.00
2022-08-31T10:40:05.741Z,101294.00
2022-08-31T10:42:39.700Z,101290.00
2022-08-31T10:45:25.547Z,101290.00
2022-08-31T10:47:56.498Z,101292.00
2022-08-31T10:50:45.598Z,101293.00
2022-08-31T10:53:23.103Z,101287.00
2022-08-31T10:56:17.285Z,101288.00
2022-08-31T10:59:10.121Z,101287.00
2022-08-31T11:01:57.481Z,101285.00
2022-08-31T11:04:35.196Z,101284.00
2022-08-31T11:07:15.362Z,101284.00
2022-08-31T11:09:55.070Z,101277.00
2022-08-31T11:12:32.475Z,101281.00
2022-08-31T11:15:39.678Z,101276.00
2022-08-31T11:18:22.560Z,101278.00
2022-08-31T11:21:29.086Z,101277.00
2022-08-31T11:24:12.383Z,101272.00
2022-08-31T11:27:23.549Z,101274.00
2022-08-31T11:30:08.324Z,101276.00
2022-08-31T11:32:47.425Z,101273.00
2022-08-31T11:35:15.905Z,101264.00
2022-08-31T11:37:53.734Z,101269.00
2022-08-31T11:40:43.936Z,101267.00
2022-08-31T11:43:15.662Z,101261.00
2022-08-31T11:45:47.740Z,101263.00
2022-08-31T11:48:55.290Z,101259.00
2022-08-31T11:51:48.298Z,101260.00
2022-08-31T11:54:46.239Z,101260.00
2022-08-31T11:57:26.934Z,101260.00
2022-08-31T11:59:56.187Z,101254.00
2022-08-31T12:02:24.689Z,101253.00
2022-08-31T12:05:03.166Z,101243.00
2022-08-31T12:07:44.081Z,101246.00
2022-08-31T12:10:34.573Z,101237.00
2022-08-31T12:13:09.720Z,101241.00
2022-08-31T12:15:38.952Z,101232.00
2022-08-31T12:18:38.761Z,101241.00
2022-08-31T12:22:06.176Z,101235.00
2022-08-31T12:24:58.784Z,101232.00
2022-08-31T12:28:07.981Z,101239.00
2022-08-31T12:30:36.637Z,101231.00
2022-08-31T12:33:19.511Z,101234.00
2022-08-31T12:36:14.852Z,101231.00
2022-08-31T12:38:42.609Z,101236.00
2022-08-31T12:41:14.846Z,101233.00
2022-08-31T12:43:49.439Z,101231.00
2022-08-31T12:46:47.353Z,101231.00
2022-08-31T12:49:36.545Z,101222.00
2022-08-31T12:52:06.920Z,101214.00
2022-08-31T12:55:00.263Z,101227.00
2022-08-31T12:57:51.949Z,101224.00
2022-08-31T13:00:31.287Z,101217.00
2022-08-31T13:03:17.601Z,101224.00
2022-08-31T13:06:10.111Z,101225.00
2022-08-31T13:08:43.195Z,101221.00
2022-08-31T13:11:40.920Z,101212.00
2022-08-31T13:14:27.262Z,101220.00
2022-08-31T13:17:11.853Z,101213.00
2022-08-31T13:19:53.527Z,101208.00
2022-08-31T13:22:39.725Z,101209.00
2022-08-31T13:25:38.751Z,101210.00
2022-08-31T13:28:13.175Z,101206.00
2022-08-31T13:30:55.055Z,101203.00
2022-08-31T13:33:35.113Z,101198.00
2022-08-31T13:36:36.135Z,101196.00
2022-08-31T13:39:44.913Z,101188.00
2022-08-31T13:42:41.555Z,101192.00
2022-08-31T13:45:41.286Z,101185.00
2022-08-31T13:48:24.546Z,101186.00
2022-08-31T13:51:03.569Z,101195.00
2022-08-31T13:53:46.186Z,101181.00
2022-08-31T13:56:44.448Z,101180.00
2022-08-31T13:59:24.854Z,101180.00
2022-08-31T14:01:58.651Z,101179.00
2022-08-31T14:04:45.980Z,101180.00
2022-08-31T14:07:24.020Z,101178.00
2022-08-31T14:10:00.621Z,101182.00
2022-08-31T14:12:37.504Z,101190.00
2022-08-31T14:15:11.240Z,101177.00
2022-08-31T14:20:39.902Z,101174.00
2022-08-31T14:23:30.716Z,101179.00
2022-08-31T14:26:08.042Z,101182.00
2022-08-31T14:28:43.381Z,101178.00
2022-08-31T14:31:37.095Z,101177.00
2022-08-31T14:34:35.160Z,101169.00
2022-08-31T14:37:17.153Z,101180.00
2022-08-31T14:39:49.334Z,101173.00
2022-08-31T14:42:28.967Z,101173.00
2022-08-31T14:45:03.364Z,101173.00
2022-08-31T14:47:36.683Z,101173.00
2022-08-31T14:50:07.498Z,101170.00
2022-08-31T14:52:55.497Z,101164.00
2022-08-31T14:55:26.067Z,101170.00
2022-08-31T14:58:08.972Z,101172.00
2022-08-31T15:00:51.181Z,101164.00
2022-08-31T15:03:24.650Z,101169.00
2022-08-31T15:05:52.318Z,101166.00
2022-08-31T15:08:20.444Z,101170.00
2022-08-31T15:10:54.683Z,101171.00
2022-08-31T15:13:23.801Z,101159.00
2022-08-31T15:15:55.295Z,101164.00
2022-08-31T15:18:25.106Z,101163.00
2022-08-31T15:20:56.169Z,101158.00
2022-08-31T15:23:23.762Z,101157.00
2022-08-31T15:25:51.364Z,101159.00
2022-08-31T15:28:19.022Z,101156.00
2022-08-31T15:30:46.878Z,101157.00
2022-08-31T15:33:14.979Z,101156.00
2022-08-31T15:35:44.785Z,101155.00
2022-08-31T15:38:12.653Z,101154.00
2022-08-31T15:40:40.266Z,101150.00
2022-08-31T15:43:15.327Z,101146.00
2022-08-31T15:45:43.791Z,101151.00
2022-08-31T15:48:29.857Z,101151.00
2022-08-31T15:51:06.208Z,101152.00
2022-08-31T15:53:35.667Z,101164.00
2022-08-31T15:56:06.643Z,101155.00
2022-08-31T15:58:35.896Z,101160.00
2022-08-31T16:01:06.307Z,101153.00
2022-08-31T16:03:35.454Z,101147.00
2022-08-31T16:06:05.920Z,101143.00
2022-08-31T16:08:33.509Z,101145.00
2022-08-31T16:11:01.257Z,101144.00
2022-08-31T16:13:31.955Z,101131.00
2022-08-31T16:16:01.526Z,101136.00
2022-08-31T16:18:29.201Z,101137.00
2022-08-31T16:21:05.312Z,101134.00
2022-08-31T16:23:33.335Z,101133.00
2022-08-31T16:26:00.972Z,101130.00
2022-08-31T16:28:28.758Z,101127.00
2022-08-31T16:30:56.518Z,101124.00
2022-08-31T16:33:24.047Z,101124.00
2022-08-31T16:35:51.695Z,101131.00
2022-08-31T16:38:19.754Z,101125.00
2022-08-31T16:40:47.590Z,101121.00
2022-08-31T16:43:15.198Z,101118.00
2022-08-31T16:45:42.919Z,101123.00
2022-08-31T16:48:29.973Z,101125.00
2022-08-31T16:51:02.842Z,101121.00
2022-08-31T16:53:31.774Z,101128.00
2022-08-31T16:56:00.249Z,101130.00
2022-08-31T16:58:51.008Z,101132.00
2022-08-31T17:01:25.831Z,101131.00
2022-08-31T17:04:00.513Z,101128.00
2022-08-31T17:06:33.999Z,101138.00
2022-08-31T17:09:06.617Z,101128.00
2022-08-31T17:11:47.758Z,101133.00
2022-08-31T17:14:35.882Z,101133.00
2022-08-31T17:17:06.896Z,101140.00
2022-08-31T17:19:37.708Z,101136.00
2022-08-31T17:22:09.908Z,101143.00
2022-08-31T17:24:43.332Z,101139.00
2022-08-31T17:27:18.592Z,101143.00
2022-08-31T17:29:50.020Z,101146.00
2022-08-31T17:32:22.689Z,101145.00
2022-08-31T17:34:52.288Z,101151.00
2022-08-31T17:37:26.670Z,101157.00
2022-08-31T17:39:57.084Z,101149.00
2022-08-31T17:42:29.785Z,101153.00
2022-08-31T17:44:58.894Z,101150.00
2022-08-31T17:47:26.922Z,101155.00
2022-08-31T17:49:55.092Z,101147.00
2022-08-31T17:52:23.910Z,101155.00
2022-08-31T17:54:51.856Z,101157.00
2022-08-31T17:57:25.360Z,101150.00
2022-08-31T17:59:57.835Z,101152.00
2022-08-31T18:02:33.350Z,101162.00
2022-08-31T18:05:02.646Z,101156.00
2022-08-31T18:07:30.324Z,101153.00
2022-08-31T18:09:57.934Z,101153.00
2022-08-31T18:12:26.257Z,101157.00
2022-08-31T18:14:57.721Z,101160.00
2022-08-31T18:17:26.698Z,101162.00
2022-08-31T18:19:58.740Z,101159.00
2022-08-31T18:22:30.637Z,101170.00
2022-08-31T18:25:00.796Z,101174.00
2022-08-31T18:27:29.462Z,101177.00
2022-08-31T18:29:59.134Z,101177.00
2022-08-31T18:32:28.168Z,101177.00
2022-08-31T18:34:57.456Z,101188.00
2022-08-31T18:37:26.153Z,101187.00
2022-08-31T18:40:12.713Z,101182.00
2022-08-31T18:42:59.305Z,101186.00
2022-08-31T18:45:31.597Z,101186.00
2022-08-31T18:48:24.465Z,101189.00
2022-08-31T18:50:52.661Z,101182.00
2022-08-31T18:53:27.833Z,101187.00
2022-08-31T18:56:09.917Z,101184.00
2022-08-31T18:58:39.328Z,101192.00
2022-08-31T19:01:12.604Z,101188.00
2022-08-31T19:03:41.556Z,101183.00
2022-08-31T19:06:16.894Z,101181.00
2022-08-31T19:08:45.699Z,101183.00
2022-08-31T19:11:13.846Z,101187.00
2022-08-31T19:13:42.082Z,101185.00
2022-08-31T19:16:22.149Z,101179.00
2022-08-31T19:18:51.588Z,101182.00
2022-08-31T19:21:26.843Z,101183.00
2022-08-31T19:23:56.096Z,101186.00
2022-08-31T19:26:31.818Z,101190.00
2022-08-31T19:29:01.061Z,101189.00
2022-08-31T19:31:30.424Z,101188.00
2022-08-31T19:33:58.574Z,101187.00
2022-08-31T19:36:30.647Z,101190.00
2022-08-31T19:38:59.656Z,101190.00
2022-08-31T19:41:28.657Z,101187.00
2022-08-31T19:44:07.612Z,101187.00
2022-08-31T19:46:40.672Z,101184.00
2022-08-31T19:49:11.302Z,101184.00
2022-08-31T19:51:51.889Z,101187.00
2022-08-31T19:54:21.419Z,101185.00
2022-08-31T19:56:49.326Z,101192.00
2022-08-31T19:59:20.550Z,101195.00
2022-08-31T20:08:51.154Z,101188.00
2022-08-31T20:11:26.788Z,101194.00
2022-08-31T20:13:57.613Z,101191.00
2022-08-31T20:16:33.731Z,101190.00
2022-08-31T20:19:04.315Z,101194.00
2022-08-31T20:21:35.104Z,101190.00
2022-08-31T20:24:07.838Z,101193.00
2022-08-31T20:26:46.363Z,101188.00
2022-08-31T20:29:20.832Z,101190.00
2022-08-31T20:31:51.839Z,101197.00
2022-08-31T20:34:22.429Z,101187.00
2022-08-31T20:37:00.434Z,101195.00
2022-08-31T20:39:31.577Z,101195.00
2022-08-31T20:42:00.733Z,101193.00
2022-08-31T20:44:36.164Z,101193.00
2022-08-31T20:47:29.315Z,101191.00
2022-08-31T20:50:00.390Z,101196.00
2022-08-31T20:52:34.434Z,101203.00
2022-08-31T20:55:04.829Z,101194.00
2022-08-31T20:57:35.323Z,101198.00
2022-08-31T21:00:06.043Z,101193.00
2022-08-31T21:02:34.939Z,101206.00
2022-08-31T21:05:33.916Z,101201.00
2022-08-31T21:07:57.664Z,101196.00
2022-08-31T21:10:37.647Z,101200.00
2022-08-31T21:13:12.722Z,101206.00
2022-08-31T21:15:45.115Z,101208.00
2022-08-31T21:18:17.915Z,101215.00
2022-08-31T21:20:46.872Z,101206.00
2022-08-31T21:23:14.737Z,101208.00
2022-08-31T21:25:46.865Z,101201.00
2022-08-31T21:28:20.488Z,101200.00
2022-08-31T21:30:50.577Z,101202.00
2022-08-31T21:33:19.258Z,101206.00
2022-08-31T21:35:47.901Z,101203.00
2022-08-31T21:38:16.775Z,101212.00
2022-08-31T21:40:50.089Z,101211.00
2022-08-31T21:43:18.560Z,101223.00
2022-08-31T21:45:47.003Z,101216.00
2022-08-31T21:48:16.945Z,101219.00
2022-08-31T21:50:50.007Z,101217.00
2022-08-31T21:53:17.808Z,101215.00
2022-08-31T21:55:46.285Z,101220.00
2022-08-31T21:58:13.931Z,101218.00
2022-08-31T22:00:43.119Z,101223.00
2022-08-31T22:03:12.717Z,101218.00
2022-08-31T22:05:41.980Z,101219.00
2022-08-31T22:08:10.433Z,101222.00
2022-08-31T22:10:44.447Z,101221.00
2022-08-31T22:13:13.972Z,101218.00
2022-08-31T22:15:43.153Z,101222.00
2022-08-31T22:18:59.200Z,101222.00
2022-08-31T22:21:00.059Z,101226.00
2022-08-31T22:23:28.072Z,101226.00
2022-08-31T22:25:58.734Z,101221.00
2022-08-31T22:28:29.355Z,101225.00
2022-08-31T22:30:57.173Z,101227.00
2022-08-31T22:33:24.719Z,101233.00
2022-08-31T22:35:52.919Z,101245.00
2022-08-31T22:38:20.891Z,101241.00
2022-08-31T22:40:49.005Z,101242.00
2022-08-31T22:43:17.988Z,101230.00
2022-08-31T22:45:48.622Z,101235.00
2022-08-31T22:48:17.533Z,101238.00
2022-08-31T22:50:45.795Z,101231.00
2022-08-31T22:53:14.364Z,101233.00
2022-08-31T22:55:43.258Z,101243.00
2022-08-31T22:58:12.763Z,101235.00
2022-08-31T23:00:42.486Z,101234.00
2022-08-31T23:03:14.375Z,101231.00
2022-08-31T23:05:43.973Z,101228.00
2022-08-31T23:08:14.091Z,101225.00
2022-08-31T23:10:42.326Z,101226.00
2022-08-31T23:13:10.077Z,101217.00
2022-08-31T23:15:39.142Z,101229.00
2022-08-31T23:18:10.175Z,101217.00
2022-08-31T23:20:39.159Z,101222.00
2022-08-31T23:23:07.218Z,101220.00
2022-08-31T23:25:53.878Z,101219.00
2022-08-31T23:28:21.629Z,101212.00
2022-08-31T23:30:52.239Z,101209.00
2022-08-31T23:33:20.298Z,101204.00
2022-08-31T23:35:48.521Z,101205.00
2022-08-31T23:38:16.855Z,101210.00
2022-08-31T23:40:46.152Z,101202.00
2022-08-31T23:43:14.890Z,101198.00
2022-08-31T23:45:43.549Z,101197.00
2022-08-31T23:48:14.116Z,101199.00
2022-08-31T23:50:42.081Z,101194.00
2022-08-31T23:53:14.348Z,101191.00
2022-08-31T23:55:46.814Z,101200.00
2022-08-31T23:58:16.452Z,101198.00
